createdAt,value
2018-01-31T01:52:20.658Z,6.50
2018-01-31T01:53:00.153Z,6.60
2018-01-31T01:55:29.059Z,6.60
2018-01-31T01:57:57.947Z,6.60
2018-01-31T02:00:26.827Z,6.50
2018-01-31T02:02:55.711Z,6.60
2018-01-31T02:05:24.598Z,6.60
2018-01-31T02:07:53.493Z,6.60
2018-01-31T02:10:22.387Z,6.60
2018-01-31T02:12:51.286Z,6.60
2018-01-31T02:15:20.176Z,6.60
2018-01-31T02:17:49.076Z,6.60
2018-01-31T02:20:17.278Z,6.60
2018-01-31T02:22:45.393Z,6.60
2018-01-31T02:25:14.283Z,6.60
2018-01-31T02:27:43.175Z,6.60
2018-01-31T02:30:12.062Z,6.60
2018-01-31T02:32:40.954Z,6.60
2018-01-31T02:35:09.091Z,6.50
2018-01-31T02:37:37.205Z,6.50
2018-01-31T02:40:06.085Z,6.60
2018-01-31T02:42:34.234Z,6.60
2018-01-31T02:45:03.100Z,6.60
2018-01-31T02:47:31.230Z,6.50
2018-01-31T02:50:00.113Z,6.50
2018-01-31T02:52:29.014Z,6.50
2018-01-31T02:54:57.885Z,6.50
2018-01-31T02:57:26.003Z,6.50
2018-01-31T02:59:54.141Z,6.50
2018-01-31T03:02:23.021Z,6.50
2018-01-31T03:04:51.150Z,6.50
2018-01-31T03:07:19.269Z,6.50
2018-01-31T03:09:48.165Z,6.50
2018-01-31T03:12:17.048Z,6.50
2018-01-31T03:14:45.940Z,6.50
2018-01-31T03:17:14.841Z,6.50
2018-01-31T03:19:44.651Z,6.40
2018-01-31T03:22:13.539Z,6.40
2018-01-31T03:24:42.419Z,6.50
2018-01-31T03:27:11.302Z,6.40
2018-01-31T03:29:39.426Z,6.40
2018-01-31T03:32:07.556Z,6.50
2018-01-31T03:34:35.671Z,6.50
2018-01-31T03:37:03.819Z,6.50
2018-01-31T03:39:31.935Z,6.50
2018-01-31T03:42:00.061Z,6.50
2018-01-31T03:44:28.956Z,6.50
2018-01-31T03:46:57.071Z,6.40
2018-01-31T03:49:25.221Z,6.50
2018-01-31T03:51:53.333Z,6.50
2018-01-31T03:54:21.485Z,6.50
2018-01-31T03:56:49.594Z,6.40
2018-01-31T03:59:18.480Z,6.50
2018-01-31T04:01:47.377Z,6.50
2018-01-31T04:04:16.254Z,6.50
2018-01-31T04:06:44.401Z,6.50
2018-01-31T04:09:12.543Z,6.50
2018-01-31T04:11:40.673Z,6.40
2018-01-31T04:14:08.787Z,6.40
2018-01-31T04:16:37.662Z,6.30
2018-01-31T04:19:05.779Z,6.30
2018-01-31T04:21:33.895Z,6.30
2018-01-31T04:24:02.786Z,6.20
2018-01-31T04:26:30.919Z,6.20
2018-01-31T04:28:59.813Z,6.20
2018-01-31T04:31:27.937Z,6.20
2018-01-31T04:33:56.067Z,6.20
2018-01-31T04:36:24.208Z,6.20
2018-01-31T04:38:52.306Z,6.20
2018-01-31T04:41:20.450Z,6.10
2018-01-31T04:43:48.562Z,6.00
2018-01-31T04:46:16.696Z,6.10
2018-01-31T04:48:44.814Z,6.10
2018-01-31T04:51:13.718Z,6.20
2018-01-31T04:53:42.598Z,6.20
2018-01-31T04:56:11.494Z,6.20
2018-01-31T04:58:40.386Z,6.30
2018-01-31T05:01:08.508Z,6.20
2018-01-31T05:03:36.650Z,6.20
2018-01-31T05:06:04.769Z,6.30
2018-01-31T05:08:32.898Z,6.30
2018-01-31T05:11:01.028Z,6.30
2018-01-31T05:13:29.145Z,6.30
2018-01-31T05:15:57.255Z,6.30
2018-01-31T05:18:25.395Z,6.30
2018-01-31T05:20:53.505Z,6.30
2018-01-31T05:23:21.637Z,6.30
2018-01-31T05:25:49.745Z,6.30
2018-01-31T05:28:17.864Z,6.30
2018-01-31T05:30:45.987Z,6.40
2018-01-31T05:33:14.102Z,6.30
2018-01-31T05:35:42.224Z,6.30
2018-01-31T05:38:10.360Z,6.30
2018-01-31T05:40:38.509Z,6.30
2018-01-31T05:43:07.407Z,6.40
2018-01-31T05:45:36.881Z,6.40
2018-01-31T05:48:05.791Z,6.40
2018-01-31T05:50:34.674Z,6.40
2018-01-31T05:53:04.400Z,6.40
2018-01-31T05:55:32.519Z,6.40
2018-01-31T05:58:00.667Z,6.40
2018-01-31T06:00:28.767Z,6.40
2018-01-31T06:02:56.893Z,6.40
2018-01-31T06:05:25.010Z,6.40
2018-01-31T06:07:53.140Z,6.40
2018-01-31T06:10:21.341Z,6.30
2018-01-31T06:12:49.490Z,6.30
2018-01-31T06:15:17.622Z,6.30
2018-01-31T06:17:46.512Z,6.30
2018-01-31T06:20:14.665Z,6.30
2018-01-31T06:22:42.782Z,6.30
2018-01-31T06:25:10.923Z,6.30
2018-01-31T06:27:39.058Z,6.30
2018-01-31T06:30:07.175Z,6.30
2018-01-31T06:32:36.096Z,6.20
2018-01-31T06:35:04.230Z,6.20
2018-01-31T06:37:33.792Z,6.20
2018-01-31T06:40:01.903Z,6.30
2018-01-31T06:42:30.062Z,6.20
2018-01-31T06:44:58.195Z,6.20
2018-01-31T06:47:26.327Z,6.20
2018-01-31T06:49:54.473Z,6.10
2018-01-31T06:52:22.580Z,6.10
2018-01-31T06:54:51.508Z,6.00
2018-01-31T06:57:19.993Z,6.00
2018-01-31T06:59:48.097Z,6.00
2018-01-31T07:02:16.325Z,6.00
2018-01-31T07:04:45.196Z,5.90
2018-01-31T07:07:13.325Z,5.90
2018-01-31T07:09:41.447Z,5.90
2018-01-31T07:12:09.573Z,5.90
2018-01-31T07:14:37.809Z,5.90
2018-01-31T07:17:06.695Z,5.90
2018-01-31T07:19:34.820Z,5.90
2018-01-31T07:22:02.961Z,5.90
2018-01-31T07:24:31.093Z,5.80
2018-01-31T07:27:00.849Z,5.80
2018-01-31T07:29:28.997Z,5.80
2018-01-31T07:31:57.117Z,5.80
2018-01-31T07:34:25.251Z,5.80
2018-01-31T07:36:53.361Z,5.80
2018-01-31T07:39:21.507Z,5.80
2018-01-31T07:41:49.606Z,5.80
2018-01-31T07:44:17.752Z,5.90
2018-01-31T07:46:45.858Z,5.90
2018-01-31T07:49:14.759Z,6.00
2018-01-31T07:51:42.890Z,6.00
2018-01-31T07:54:11.022Z,6.00
2018-01-31T07:56:39.150Z,6.10
2018-01-31T07:59:07.270Z,6.10
2018-01-31T08:01:35.413Z,6.10
2018-01-31T08:04:04.321Z,6.20
2018-01-31T08:06:33.431Z,6.20
2018-01-31T08:09:01.568Z,6.20
2018-01-31T08:11:30.454Z,6.30
2018-01-31T08:13:58.613Z,6.30
2018-01-31T08:16:28.242Z,6.40
2018-01-31T08:18:57.150Z,6.40
2018-01-31T08:21:26.030Z,6.50
2018-01-31T08:23:54.913Z,6.50
2018-01-31T08:26:23.815Z,6.50
2018-01-31T08:28:52.717Z,6.50
2018-01-31T08:31:20.856Z,6.50
2018-01-31T08:33:48.982Z,6.50
2018-01-31T08:36:17.105Z,6.50
2018-01-31T08:38:46.050Z,6.60
2018-01-31T08:41:14.197Z,6.60
2018-01-31T08:43:43.124Z,6.60
2018-01-31T08:46:11.224Z,6.60
2018-01-31T08:48:39.367Z,6.70
2018-01-31T08:51:07.498Z,6.70
2018-01-31T08:53:35.714Z,6.80
2018-01-31T08:56:03.843Z,6.90
2018-01-31T08:58:32.750Z,7.10
2018-01-31T09:01:00.893Z,7.00
2018-01-31T09:03:30.150Z,7.30
2018-01-31T09:05:58.355Z,7.30
2018-01-31T09:08:27.255Z,7.40
2018-01-31T09:10:56.187Z,7.40
2018-01-31T09:13:24.331Z,7.40
2018-01-31T09:15:52.471Z,7.40
2018-01-31T09:18:20.613Z,7.50
2018-01-31T09:20:48.775Z,7.50
2018-01-31T09:23:16.895Z,7.50
2018-01-31T09:25:45.008Z,7.50
2018-01-31T09:28:13.164Z,7.60
2018-01-31T09:30:42.057Z,7.70
2018-01-31T09:33:10.922Z,7.80
2018-01-31T09:35:39.073Z,7.80
2018-01-31T09:38:07.212Z,7.80
2018-01-31T09:40:35.370Z,7.90
2018-01-31T09:43:03.490Z,8.00
2018-01-31T09:45:31.648Z,8.00
2018-01-31T09:47:59.875Z,8.10
2018-01-31T09:50:28.745Z,8.10
2018-01-31T09:52:56.942Z,8.10
2018-01-31T09:55:25.841Z,8.00
2018-01-31T09:57:53.991Z,8.10
2018-01-31T10:00:22.903Z,8.00
2018-01-31T10:02:51.777Z,8.00
2018-01-31T10:05:20.654Z,8.00
2018-01-31T10:07:49.540Z,8.20
2018-01-31T10:10:17.689Z,8.10
2018-01-31T10:12:45.817Z,8.30
2018-01-31T10:15:13.960Z,8.40
2018-01-31T10:17:42.078Z,8.50
2018-01-31T10:20:10.234Z,8.50
2018-01-31T10:22:39.119Z,8.70
2018-01-31T10:25:07.239Z,8.70
2018-01-31T10:27:35.381Z,8.80
2018-01-31T10:30:03.531Z,9.00
2018-01-31T10:32:32.417Z,9.20
2018-01-31T10:35:00.553Z,9.10
2018-01-31T10:37:28.711Z,9.30
2018-01-31T10:39:56.827Z,9.40
2018-01-31T10:42:25.719Z,9.60
2018-01-31T10:44:54.618Z,9.70
2018-01-31T10:47:22.843Z,9.70
2018-01-31T10:49:50.986Z,9.80
2018-01-31T10:52:19.121Z,9.90
2018-01-31T10:57:28.742Z,10.20
2018-01-31T10:59:43.701Z,10.40
2018-01-31T11:02:11.829Z,10.50
2018-01-31T11:04:39.992Z,10.50
2018-01-31T11:07:08.122Z,10.50
2018-01-31T11:09:36.257Z,10.50
2018-01-31T11:12:04.422Z,10.40
2018-01-31T11:14:32.592Z,10.60
2018-01-31T11:17:00.836Z,11.10
2018-01-31T11:19:29.036Z,11.50
2018-01-31T11:21:57.988Z,12.40
2018-01-31T11:24:26.115Z,12.30
2018-01-31T11:26:54.256Z,13.00
2018-01-31T11:29:23.183Z,14.40
2018-01-31T11:31:51.306Z,14.40
2018-01-31T11:34:19.426Z,14.60
2018-01-31T11:36:49.223Z,14.90
2018-01-31T11:39:17.353Z,14.80
2018-01-31T11:41:45.490Z,15.30
2018-01-31T11:44:13.650Z,15.90
2018-01-31T11:46:42.575Z,16.80
2018-01-31T11:49:10.693Z,16.80
2018-01-31T11:51:38.817Z,17.20
2018-01-31T11:54:07.748Z,17.80
2018-01-31T11:56:35.865Z,17.70
2018-01-31T11:59:04.038Z,17.70
2018-01-31T12:01:32.165Z,17.60
2018-01-31T12:04:01.074Z,18.00
2018-01-31T12:06:29.191Z,17.90
2018-01-31T12:08:57.433Z,18.40
2018-01-31T12:11:26.319Z,18.50
2018-01-31T12:14:17.055Z,18.50
2018-01-31T12:16:56.918Z,18.50
2018-01-31T12:19:41.627Z,18.90
2018-01-31T12:22:21.421Z,19.30
2018-01-31T12:25:01.435Z,19.50
2018-01-31T12:27:41.528Z,19.40
2018-01-31T12:30:21.578Z,18.20
2018-01-31T12:33:01.499Z,17.30
2018-01-31T12:35:42.254Z,15.90
2018-01-31T12:38:22.245Z,15.90
2018-01-31T12:40:49.919Z,15.90
2018-01-31T12:43:17.563Z,16.30
2018-01-31T12:45:45.197Z,16.30
2018-01-31T12:48:24.966Z,16.40
2018-01-31T12:51:04.826Z,16.10
2018-01-31T12:56:50.647Z,15.30
2018-01-31T12:59:31.293Z,15.10
2018-01-31T13:02:11.285Z,15.00
2018-01-31T13:04:51.408Z,14.50
2018-01-31T13:07:22.381Z,14.00
2018-01-31T13:13:01.430Z,13.30
2018-01-31T13:15:51.239Z,13.00
2018-01-31T13:18:31.036Z,12.90
2018-01-31T13:21:10.913Z,12.80
2018-01-31T13:23:39.047Z,12.70
2018-01-31T13:26:19.042Z,12.70
2018-01-31T13:29:00.069Z,12.70
2018-01-31T13:31:40.859Z,12.60
2018-01-31T13:34:20.873Z,12.50
2018-01-31T13:40:19.043Z,13.00
2018-01-31T13:42:59.040Z,12.90
2018-01-31T13:45:38.883Z,13.40
2018-01-31T13:48:19.761Z,14.20
2018-01-31T13:51:06.589Z,14.20
2018-01-31T13:53:46.536Z,14.10
2018-01-31T13:56:26.507Z,14.10
2018-01-31T13:59:06.603Z,14.10
2018-01-31T14:01:46.453Z,13.90
2018-01-31T14:04:27.097Z,14.00
2018-01-31T14:07:07.054Z,14.00
2018-01-31T14:09:46.967Z,14.00
2018-01-31T14:12:27.035Z,13.80
2018-01-31T14:18:03.850Z,13.40
2018-01-31T14:20:43.890Z,13.10
2018-01-31T14:23:24.070Z,12.90
2018-01-31T14:26:04.881Z,12.70
2018-01-31T14:28:44.780Z,12.70
2018-01-31T14:31:25.638Z,12.50
2018-01-31T14:34:05.599Z,12.50
2018-01-31T14:36:34.036Z,12.40
2018-01-31T14:39:01.718Z,12.40
2018-01-31T14:41:29.368Z,12.30
2018-01-31T14:43:57.039Z,12.20
2018-01-31T14:46:24.686Z,12.20
2018-01-31T14:48:52.356Z,12.10
2018-01-31T14:51:20.009Z,12.00
2018-01-31T14:53:47.682Z,12.00
2018-01-31T14:56:15.357Z,12.00
2018-01-31T14:58:43.018Z,12.00
2018-01-31T15:01:10.679Z,12.10
2018-01-31T15:03:38.314Z,12.10
2018-01-31T15:06:05.985Z,12.10
2018-01-31T15:08:33.639Z,12.10
2018-01-31T15:11:01.275Z,12.10
2018-01-31T15:13:28.937Z,12.10
2018-01-31T15:15:56.610Z,11.90
2018-01-31T15:18:24.256Z,11.80
2018-01-31T15:20:51.893Z,11.70
2018-01-31T15:23:20.301Z,11.60
2018-01-31T15:25:47.969Z,11.60
2018-01-31T15:28:15.627Z,11.60
2018-01-31T15:30:43.326Z,11.50
2018-01-31T15:33:11.772Z,11.50
2018-01-31T15:35:39.446Z,11.50
2018-01-31T15:38:07.180Z,11.50
2018-01-31T15:40:34.812Z,11.30
2018-01-31T15:43:03.223Z,11.20
2018-01-31T15:45:30.872Z,11.10
2018-01-31T15:47:58.515Z,11.10
2018-01-31T15:50:27.000Z,10.80
2018-01-31T15:52:55.441Z,10.70
2018-01-31T15:55:23.123Z,10.70
2018-01-31T15:57:51.567Z,10.60
2018-01-31T16:00:19.314Z,10.60
2018-01-31T16:02:46.993Z,10.50
2018-01-31T16:05:14.625Z,10.50
2018-01-31T16:07:42.291Z,10.50
2018-01-31T16:10:09.926Z,10.40
2018-01-31T16:12:38.316Z,10.40
2018-01-31T16:15:05.958Z,10.40
2018-01-31T16:17:34.866Z,10.40
2018-01-31T16:20:14.759Z,10.30
2018-01-31T16:22:42.880Z,10.30
2018-01-31T16:25:11.028Z,10.30
2018-01-31T16:27:51.166Z,10.30
2018-01-31T16:30:23.245Z,10.30
2018-01-31T16:35:49.851Z,10.20
2018-01-31T16:38:17.987Z,10.20
2018-01-31T16:40:46.916Z,10.20
2018-01-31T16:43:15.080Z,10.20
2018-01-31T16:45:43.184Z,10.20
2018-01-31T16:48:11.323Z,10.20
2018-01-31T16:50:39.458Z,10.20
2018-01-31T16:53:08.362Z,10.10
2018-01-31T16:55:36.490Z,10.10
2018-01-31T16:58:04.631Z,10.10
2018-01-31T17:00:32.766Z,10.00
2018-01-31T17:03:01.674Z,10.00
2018-01-31T17:05:29.839Z,10.00
2018-01-31T17:07:58.726Z,10.00
2018-01-31T17:10:27.627Z,10.00
2018-01-31T17:12:55.754Z,9.90
2018-01-31T17:15:23.898Z,10.00
2018-01-31T17:17:52.026Z,10.00
2018-01-31T17:20:20.910Z,9.90
2018-01-31T17:22:49.820Z,9.90
2018-01-31T17:25:18.694Z,10.00
2018-01-31T17:27:47.643Z,9.90
2018-01-31T17:30:15.744Z,9.90
2018-01-31T17:32:43.923Z,10.00
2018-01-31T17:35:12.046Z,9.90
2018-01-31T17:37:40.221Z,10.00
2018-01-31T17:40:08.400Z,9.90
2018-01-31T17:42:36.498Z,10.00
2018-01-31T17:45:04.652Z,10.00
2018-01-31T17:47:33.589Z,10.00
2018-01-31T17:50:02.488Z,10.00
2018-01-31T17:52:30.595Z,9.90
2018-01-31T17:54:58.756Z,10.00
2018-01-31T17:57:26.886Z,10.00
2018-01-31T17:59:55.785Z,10.00
2018-01-31T18:02:24.698Z,10.10
2018-01-31T18:04:52.826Z,10.00
2018-01-31T18:07:20.998Z,10.10
2018-01-31T18:09:49.125Z,10.10
2018-01-31T18:12:17.735Z,10.10
2018-01-31T18:14:46.804Z,10.10
2018-01-31T18:17:14.957Z,10.10
2018-01-31T18:19:43.116Z,10.10
2018-01-31T18:22:12.031Z,10.20
2018-01-31T18:24:40.170Z,10.10
2018-01-31T18:27:09.098Z,10.20
2018-01-31T18:29:37.238Z,10.10
2018-01-31T18:32:06.122Z,10.20
2018-01-31T18:34:35.013Z,10.20
2018-01-31T18:37:03.908Z,10.20
2018-01-31T18:39:32.844Z,10.20
2018-01-31T18:42:00.972Z,10.20
2018-01-31T18:44:29.874Z,10.20
2018-01-31T18:46:58.042Z,10.20
2018-01-31T18:49:26.169Z,10.20
2018-01-31T18:51:54.303Z,10.20
2018-01-31T18:54:22.454Z,10.10
2018-01-31T18:56:51.357Z,10.10
2018-01-31T18:59:19.522Z,10.10
2018-01-31T19:01:47.679Z,10.10
2018-01-31T19:04:16.602Z,10.10
2018-01-31T19:06:44.756Z,10.00
2018-01-31T19:09:13.678Z,10.00
2018-01-31T19:11:41.827Z,10.00
2018-01-31T19:14:10.140Z,10.00
2018-01-31T19:16:38.326Z,10.00
2018-01-31T19:19:06.490Z,9.90
2018-01-31T19:21:34.604Z,9.90
2018-01-31T19:24:03.520Z,9.90
2018-01-31T19:26:32.422Z,9.80
2018-01-31T19:29:00.547Z,9.80
2018-01-31T19:31:30.300Z,9.80
2018-01-31T19:33:59.463Z,9.80
2018-01-31T19:36:27.656Z,9.80
2018-01-31T19:38:55.897Z,9.80
2018-01-31T19:41:24.106Z,9.80
2018-01-31T19:43:53.076Z,9.80
2018-01-31T19:46:21.659Z,9.80
2018-01-31T19:48:50.750Z,9.80
2018-01-31T19:51:18.913Z,9.80
2018-01-31T19:53:47.360Z,9.90
2018-01-31T19:56:15.508Z,9.80
2018-01-31T19:58:43.916Z,9.80
2018-01-31T20:01:12.298Z,9.90
2018-01-31T20:03:40.745Z,9.90
2018-01-31T20:06:09.050Z,9.90
2018-01-31T20:08:37.945Z,9.90
2018-01-31T20:11:06.220Z,10.00
2018-01-31T20:13:34.391Z,10.00
2018-01-31T20:16:02.538Z,10.00
2018-01-31T20:18:30.886Z,10.00
2018-01-31T20:20:59.059Z,10.00
2018-01-31T20:23:28.070Z,10.00
2018-01-31T20:25:56.241Z,10.00
2018-01-31T20:28:24.475Z,10.00
2018-01-31T20:30:52.708Z,10.00
2018-01-31T20:33:20.939Z,10.00
2018-01-31T20:35:49.854Z,10.00
2018-01-31T20:38:18.048Z,10.00
2018-01-31T20:40:46.270Z,10.00
2018-01-31T20:43:15.333Z,9.90
2018-01-31T20:45:43.526Z,9.90
2018-01-31T20:48:11.744Z,9.90
2018-01-31T20:50:39.876Z,9.90
2018-01-31T20:53:08.037Z,9.80
2018-01-31T20:55:36.258Z,9.80
2018-01-31T20:58:04.576Z,9.80
2018-01-31T21:00:32.791Z,9.80
2018-01-31T21:03:02.645Z,9.70
2018-01-31T21:05:30.807Z,9.60
2018-01-31T21:07:58.993Z,9.60
2018-01-31T21:10:27.186Z,9.60
2018-01-31T21:12:56.089Z,9.50
2018-01-31T21:15:25.065Z,9.40
2018-01-31T21:17:53.337Z,9.40
2018-01-31T21:20:22.183Z,9.30
2018-01-31T21:22:50.311Z,9.30
2018-01-31T21:25:18.445Z,9.30
2018-01-31T21:27:46.726Z,9.20
2018-01-31T21:30:15.046Z,9.20
2018-01-31T21:32:43.293Z,9.20
2018-01-31T21:35:11.503Z,9.10
2018-01-31T21:37:40.420Z,9.00
2018-01-31T21:40:09.313Z,9.00
2018-01-31T21:42:37.426Z,8.90
2018-01-31T21:45:05.623Z,8.90
2018-01-31T21:47:34.233Z,8.90
2018-01-31T21:50:02.631Z,8.90
2018-01-31T21:52:30.786Z,8.80
2018-01-31T21:54:58.946Z,8.80
2018-01-31T21:57:38.943Z,8.70
2018-01-31T22:00:07.380Z,8.70
2018-01-31T22:02:36.486Z,8.70
2018-01-31T22:05:04.593Z,8.70
2018-01-31T22:07:32.716Z,8.70
2018-01-31T22:10:01.041Z,8.70
2018-01-31T22:12:29.167Z,8.70
2018-01-31T22:14:58.061Z,8.60
2018-01-31T22:17:26.178Z,8.60
2018-01-31T22:19:54.297Z,8.60
2018-01-31T22:22:22.502Z,8.60
2018-01-31T22:24:50.864Z,8.50
2018-01-31T22:27:18.984Z,8.50
2018-01-31T22:29:47.154Z,8.50
2018-01-31T22:32:15.268Z,8.50
2018-01-31T22:34:43.374Z,8.50
2018-01-31T22:37:11.681Z,8.50
2018-01-31T22:39:39.802Z,8.40
2018-01-31T22:42:07.921Z,8.40
2018-01-31T22:44:36.955Z,8.50
2018-01-31T22:47:05.089Z,8.50
2018-01-31T22:49:33.471Z,8.40
2018-01-31T22:52:01.609Z,8.40
2018-01-31T22:54:29.925Z,8.40
2018-01-31T22:56:58.201Z,8.30
2018-01-31T22:59:27.805Z,8.30
2018-01-31T23:01:55.972Z,8.30
2018-01-31T23:04:24.088Z,8.30
2018-01-31T23:06:52.222Z,8.30
2018-01-31T23:09:20.335Z,8.30
2018-01-31T23:11:48.474Z,8.30
2018-01-31T23:14:22.955Z,8.20
2018-01-31T23:16:51.081Z,8.20
2018-01-31T23:19:19.203Z,8.10
2018-01-31T23:21:47.349Z,8.10
2018-01-31T23:24:15.474Z,8.10
2018-01-31T23:26:44.388Z,8.10
2018-01-31T23:29:13.268Z,8.10
2018-01-31T23:31:42.155Z,8.10
2018-01-31T23:34:11.054Z,8.00
2018-01-31T23:36:39.935Z,8.00
2018-01-31T23:39:08.833Z,8.00
2018-01-31T23:41:36.950Z,8.00
2018-01-31T23:44:05.081Z,8.00
2018-01-31T23:46:33.240Z,8.10
2018-01-31T23:49:02.120Z,8.10
2018-01-31T23:51:30.249Z,8.00
2018-01-31T23:53:58.381Z,8.00
2018-01-31T23:56:27.277Z,8.00
2018-01-31T23:58:55.402Z,8.00
